createdAt,value
2023-01-17T00:00:01.031Z,95832.44
2023-01-17T00:05:21.225Z,95817.75
2023-01-17T00:10:26.008Z,95810.25
2023-01-17T00:15:31.356Z,95793.75
2023-01-17T00:20:51.546Z,95800.97
2023-01-17T00:26:06.744Z,95818.13
2023-01-17T00:31:13.842Z,95813.13
2023-01-17T00:36:15.657Z,95812.19
2023-01-17T00:41:17.598Z,95807.06
2023-01-17T00:46:39.991Z,95812.16
2023-01-17T00:52:00.266Z,95811.19
2023-01-17T00:57:21.506Z,95806.34
2023-01-17T01:02:43.829Z,95817.06
2023-01-17T01:08:04.599Z,95811.56
2023-01-17T01:13:24.781Z,95815.81
2023-01-17T01:18:46.447Z,95808.88
2023-01-17T01:24:06.873Z,95813.56
2023-01-17T01:29:27.256Z,95820.59
2023-01-17T01:34:31.698Z,95809.66
2023-01-17T01:39:34.562Z,95826.50
2023-01-17T01:44:45.476Z,95815.91
2023-01-17T01:49:51.530Z,95818.97
2023-01-17T01:54:59.041Z,95811.22
2023-01-17T02:00:06.469Z,95824.72
2023-01-17T02:05:31.131Z,95818.00
2023-01-17T02:10:34.924Z,95824.25
2023-01-17T02:15:50.412Z,95823.44
2023-01-17T02:21:10.048Z,95825.53
2023-01-17T02:26:44.779Z,95837.19
2023-01-17T02:31:52.589Z,95834.13
2023-01-17T02:37:06.483Z,95837.75
2023-01-17T02:42:15.315Z,95834.66
2023-01-17T02:47:24.123Z,95845.06
2023-01-17T02:52:43.135Z,95852.56
2023-01-17T02:58:00.388Z,95864.81
2023-01-17T03:03:15.060Z,95878.56
2023-01-17T03:08:19.194Z,95873.41
2023-01-17T03:13:22.127Z,95876.81
2023-01-17T03:18:26.593Z,95901.78
2023-01-17T03:23:29.559Z,95890.38
2023-01-17T03:28:32.437Z,95908.56
2023-01-17T03:33:37.500Z,95910.66
2023-01-17T03:38:40.362Z,95907.00
2023-01-17T03:43:43.263Z,95924.91
2023-01-17T03:48:47.473Z,95917.91
2023-01-17T03:53:51.982Z,95917.41
2023-01-17T03:58:54.877Z,95942.53
2023-01-17T04:03:59.155Z,95931.13
2023-01-17T04:09:01.993Z,95946.19
2023-01-17T04:14:04.863Z,95953.16
2023-01-17T04:19:10.450Z,95945.06
2023-01-17T04:24:13.359Z,95962.94
2023-01-17T04:29:16.217Z,95963.47
2023-01-17T04:34:20.448Z,95968.16
2023-01-17T04:39:23.337Z,95979.00
2023-01-17T04:44:26.218Z,95988.88
2023-01-17T04:49:30.457Z,95998.97
2023-01-17T04:54:33.314Z,96014.28
2023-01-17T04:59:36.220Z,96009.59
2023-01-17T05:04:40.698Z,96023.59
2023-01-17T05:09:44.158Z,96031.63
2023-01-17T05:14:47.086Z,96029.78
2023-01-17T05:19:52.552Z,96026.66
2023-01-17T05:24:55.444Z,96040.72
2023-01-17T05:29:58.380Z,96037.53
2023-01-17T05:35:02.664Z,96041.13
2023-01-17T05:40:09.705Z,96043.25
2023-01-17T05:45:16.708Z,96060.28
2023-01-17T05:50:22.642Z,96073.28
2023-01-17T05:55:27.064Z,96068.09
2023-01-17T06:00:30.853Z,96070.13
2023-01-17T06:05:35.461Z,96087.88
2023-01-17T06:10:38.368Z,96083.38
2023-01-17T06:15:41.766Z,96097.88
2023-01-17T06:20:46.274Z,96094.31
2023-01-17T06:25:49.595Z,96090.72
2023-01-17T06:30:52.521Z,96099.44
2023-01-17T06:35:56.750Z,96101.50
2023-01-17T06:41:00.491Z,96106.31
2023-01-17T06:46:03.594Z,96115.34
2023-01-17T06:51:07.899Z,96119.47
2023-01-17T06:56:11.342Z,96118.47
2023-01-17T07:01:14.552Z,96129.94
2023-01-17T07:06:19.043Z,96138.69
2023-01-17T07:11:22.059Z,96150.09
2023-01-17T07:16:25.014Z,96157.56
2023-01-17T07:21:29.280Z,96171.25
2023-01-17T07:26:32.177Z,96166.84
2023-01-17T07:31:36.826Z,96168.56
2023-01-17T07:36:41.174Z,96159.91
2023-01-17T07:41:44.086Z,96155.63
2023-01-17T07:46:48.038Z,96172.31
2023-01-17T07:51:52.339Z,96172.81
2023-01-17T07:56:55.229Z,96176.66
2023-01-17T08:01:58.163Z,96187.97
2023-01-17T08:07:03.104Z,96183.63
2023-01-17T08:12:06.491Z,96177.25
2023-01-17T08:17:15.153Z,96186.81
2023-01-17T08:22:19.556Z,96198.31
2023-01-17T08:27:22.480Z,96196.06
2023-01-17T08:32:25.334Z,96213.75
2023-01-17T08:37:29.697Z,96222.16
2023-01-17T08:42:37.217Z,96233.16
2023-01-17T08:47:40.104Z,96250.81
2023-01-17T08:52:44.342Z,96246.97
2023-01-17T08:57:47.936Z,96238.84
2023-01-17T09:02:53.163Z,96261.56
2023-01-17T09:07:57.853Z,96248.81
2023-01-17T09:13:00.725Z,96270.50
2023-01-17T09:18:03.585Z,96274.47
2023-01-17T09:23:07.813Z,96274.13
2023-01-17T09:28:10.970Z,96276.16
2023-01-17T09:33:13.884Z,96283.94
2023-01-17T09:38:18.169Z,96286.66
2023-01-17T09:43:27.669Z,96291.41
2023-01-17T09:48:37.202Z,96290.19
2023-01-17T09:53:43.940Z,96283.56
2023-01-17T09:58:58.675Z,96288.25
2023-01-17T10:04:20.751Z,96298.06
2023-01-17T10:09:56.467Z,96302.38
2023-01-17T10:15:23.023Z,96308.19
2023-01-17T10:20:47.745Z,96295.50
2023-01-17T10:25:52.574Z,96300.72
2023-01-17T10:31:02.112Z,96303.97
2023-01-17T10:36:10.547Z,96315.13
2023-01-17T10:41:22.587Z,96309.66
2023-01-17T10:46:31.439Z,96318.94
2023-01-17T10:51:59.874Z,96330.06
2023-01-17T10:57:04.161Z,96328.25
2023-01-17T11:02:19.970Z,96337.25
2023-01-17T11:07:25.289Z,96343.09
2023-01-17T11:12:31.978Z,96346.91
2023-01-17T11:17:36.853Z,96340.25
2023-01-17T11:22:40.036Z,96340.69
2023-01-17T11:27:59.492Z,96332.84
2023-01-17T11:33:06.152Z,96332.31
2023-01-17T11:38:18.777Z,96326.34
2023-01-17T11:43:25.405Z,96333.28
2023-01-17T11:48:35.289Z,96319.81
2023-01-17T11:53:41.661Z,96313.88
2023-01-17T11:58:47.267Z,96313.38
2023-01-17T12:04:10.234Z,96317.75
2023-01-17T12:09:23.873Z,96312.47
2023-01-17T12:14:36.879Z,96320.41
2023-01-17T12:20:00.882Z,96328.84
2023-01-17T12:25:18.913Z,96335.38
2023-01-17T12:30:43.952Z,96335.09
2023-01-17T12:35:52.905Z,96333.84
2023-01-17T12:41:02.785Z,96333.34
2023-01-17T12:46:13.095Z,96344.63
2023-01-17T12:51:23.407Z,96343.53
2023-01-17T12:56:31.384Z,96344.13
2023-01-17T13:01:39.807Z,96350.28
2023-01-17T13:06:54.613Z,96341.91
2023-01-17T13:12:02.146Z,96349.84
2023-01-17T13:17:23.533Z,96348.81
2023-01-17T13:22:27.454Z,96353.16
2023-01-17T13:27:40.022Z,96356.00
2023-01-17T13:33:04.934Z,96364.81
2023-01-17T13:38:35.503Z,96370.59
2023-01-17T13:43:41.194Z,96378.16
2023-01-17T13:48:45.488Z,96382.22
2023-01-17T13:53:49.009Z,96396.06
2023-01-17T13:59:02.829Z,96406.28
2023-01-17T14:04:08.985Z,96402.28
2023-01-17T14:09:22.886Z,96400.25
2023-01-17T14:14:52.053Z,96389.16
2023-01-17T14:20:00.262Z,96395.91
2023-01-17T14:25:14.987Z,96401.94
2023-01-17T14:30:22.121Z,96401.00
2023-01-17T14:35:30.014Z,96397.91
2023-01-17T14:40:39.471Z,96400.09
2023-01-17T14:45:44.444Z,96420.41
2023-01-17T14:50:49.866Z,96409.47
2023-01-17T14:55:57.759Z,96404.66
2023-01-17T15:01:03.510Z,96423.78
2023-01-17T15:06:13.117Z,96421.94
2023-01-17T15:11:22.795Z,96422.19
2023-01-17T15:16:27.516Z,96421.34
2023-01-17T15:21:35.510Z,96425.03
2023-01-17T15:26:44.173Z,96433.75
2023-01-17T15:31:49.615Z,96425.84
2023-01-17T15:36:56.884Z,96426.63
2023-01-17T15:42:03.342Z,96424.97
2023-01-17T15:47:07.707Z,96427.97
2023-01-17T15:52:17.290Z,96447.44
2023-01-17T15:57:25.139Z,96451.94
2023-01-17T16:02:38.686Z,96444.06
2023-01-17T16:07:43.057Z,96433.91
2023-01-17T16:12:46.477Z,96449.44
2023-01-17T16:17:52.118Z,96446.19
2023-01-17T16:22:56.585Z,96444.97
2023-01-17T16:28:00.090Z,96447.75
2023-01-17T16:33:05.256Z,96443.94
2023-01-17T16:38:12.105Z,96444.13
2023-01-17T16:43:16.369Z,96434.09
2023-01-17T16:48:19.721Z,96435.59
2023-01-17T16:53:25.649Z,96430.66
2023-01-17T16:58:28.606Z,96432.69
2023-01-17T17:03:31.578Z,96431.00
2023-01-17T17:08:36.996Z,96426.44
2023-01-17T17:13:39.915Z,96427.28
2023-01-17T17:18:44.004Z,96413.47
2023-01-17T17:23:50.930Z,96410.66
2023-01-17T17:28:54.496Z,96430.06
2023-01-17T17:34:01.307Z,96436.94
2023-01-17T17:39:09.254Z,96448.56
2023-01-17T17:44:12.530Z,96443.03
2023-01-17T17:49:16.897Z,96449.97
2023-01-17T17:54:22.088Z,96441.31
2023-01-17T17:59:25.007Z,96444.44
2023-01-17T18:04:28.384Z,96445.81
2023-01-17T18:09:32.710Z,96438.81
2023-01-17T18:14:36.186Z,96449.03
2023-01-17T18:19:39.161Z,96444.19
2023-01-17T18:24:43.448Z,96458.06
2023-01-17T18:29:46.309Z,96455.75
2023-01-17T18:34:49.268Z,96446.88
2023-01-17T18:39:53.583Z,96447.56
2023-01-17T18:44:56.524Z,96452.13
2023-01-17T18:49:59.420Z,96461.28
2023-01-17T18:55:03.679Z,96464.94
2023-01-17T19:00:07.555Z,96465.28
2023-01-17T19:05:11.920Z,96475.78
2023-01-17T19:10:19.694Z,96461.91
2023-01-17T19:15:22.817Z,96464.34
2023-01-17T19:20:25.941Z,96471.13
2023-01-17T19:25:30.442Z,96474.69
2023-01-17T19:30:34.316Z,96479.84
2023-01-17T19:35:37.965Z,96483.44
2023-01-17T19:40:42.293Z,96487.25
2023-01-17T19:45:45.541Z,96481.88
2023-01-17T19:50:48.749Z,96478.34
2023-01-17T19:55:52.979Z,96488.28
2023-01-17T20:00:56.030Z,96494.78
2023-01-17T20:05:59.273Z,96495.63
2023-01-17T20:11:04.800Z,96497.84
2023-01-17T20:16:10.108Z,96505.56
2023-01-17T20:21:14.610Z,96505.75
2023-01-17T20:26:20.539Z,96517.81
2023-01-17T20:31:25.432Z,96518.81
2023-01-17T20:36:29.999Z,96530.28
2023-01-17T20:41:35.972Z,96532.84
2023-01-17T20:46:41.298Z,96536.41
2023-01-17T20:51:45.425Z,96536.81
2023-01-17T20:56:49.705Z,96539.19
2023-01-17T21:01:52.831Z,96531.47
2023-01-17T21:06:56.338Z,96525.16
2023-01-17T21:12:01.397Z,96523.19
2023-01-17T21:17:04.413Z,96532.28
2023-01-17T21:22:07.382Z,96525.34
2023-01-17T21:27:12.933Z,96531.09
2023-01-17T21:32:17.280Z,96531.88
2023-01-17T21:37:20.196Z,96516.63
2023-01-17T21:42:24.561Z,96519.59
2023-01-17T21:47:27.470Z,96528.91
2023-01-17T21:52:31.658Z,96519.41
2023-01-17T21:57:53.223Z,96515.47
2023-01-17T22:02:58.726Z,96513.47
2023-01-17T22:08:15.353Z,96500.41
2023-01-17T22:13:19.851Z,96487.19
2023-01-17T22:18:23.409Z,96484.00
2023-01-17T22:23:26.831Z,96486.78
2023-01-17T22:28:32.793Z,96486.59
2023-01-17T22:33:35.761Z,96481.03
2023-01-17T22:38:38.661Z,96474.13
2023-01-17T22:43:44.687Z,96469.19
2023-01-17T22:48:48.078Z,96465.44
2023-01-17T22:53:53.214Z,96454.38
2023-01-17T22:58:58.448Z,96452.97
2023-01-17T23:04:03.711Z,96448.81
2023-01-17T23:09:08.505Z,96436.16
2023-01-17T23:14:15.779Z,96428.69
2023-01-17T23:19:24.597Z,96421.53
2023-01-17T23:24:27.489Z,96412.84
2023-01-17T23:29:31.757Z,96416.56
2023-01-17T23:34:34.668Z,96416.19
2023-01-17T23:39:37.556Z,96427.28
2023-01-17T23:44:41.839Z,96427.03
2023-01-17T23:49:45.477Z,96422.06
2023-01-17T23:54:49.122Z,96428.81
2023-01-17T23:59:53.363Z,96422.91
